Time;durP1;ratioP1;P1;durP2;ratioP2;P2;SDS_P1;SDS_P2;PMS_P1;PMS_P2;Temp;Humidity;BMP_temperature;BMP_pressure;BME280_temperature;BME280_humidity;BME280_pressure;Samples;Min_cycle;Max_cycle;Signal;HPM_P1;HPM_P2
2023/08/21 00:01:25;;;;;;;27.17;25.02;;;;;;;27.18;60.73;100634.94;5038170;28;96839;-84
2023/08/21 00:03:51;;;;;;;28.15;25.85;;;;;;;27.16;60.91;100635.06;5037637;28;98970;-84
2023/08/21 00:06:16;;;;;;;28.33;25.63;;;;;;;27.14;60.83;100634.38;5025624;28;98546;-85
2023/08/21 00:08:42;;;;;;;27.25;24.92;;;;;;;27.14;61.08;100644.25;5034721;28;96869;-84
2023/08/21 00:11:07;;;;;;;28.02;25.73;;;;;;;27.09;61.08;100645.59;5037852;28;96836;-84
2023/08/21 00:13:33;;;;;;;27.65;25.27;;;;;;;27.07;61.14;100644.88;5037377;28;99272;-84
2023/08/21 00:15:58;;;;;;;27.45;25.27;;;;;;;27.07;61.40;100641.34;5037456;28;98819;-84
2023/08/21 00:18:24;;;;;;;28.38;26.27;;;;;;;26.95;61.34;100634.47;5038007;28;96618;-84
2023/08/21 00:20:49;;;;;;;28.83;26.42;;;;;;;26.99;61.31;100641.25;5037560;28;96840;-84
2023/08/21 00:23:15;;;;;;;28.27;25.98;;;;;;;26.93;61.36;100629.22;5037412;28;99118;-84
2023/08/21 00:25:45;;;;;;;29.40;26.80;;;;;;;27.03;61.13;100635.41;5019501;27;98456;-84
2023/08/21 00:28:11;;;;;;;28.38;26.08;;;;;;;26.97;61.27;100619.88;5021400;27;96731;-84
2023/08/21 00:30:36;;;;;;;27.75;25.65;;;;;;;26.98;61.29;100635.00;5026941;28;96830;-84
2023/08/21 00:33:02;;;;;;;27.90;25.80;;;;;;;26.96;61.21;100647.78;5015489;28;100493;-85
2023/08/21 00:35:27;;;;;;;28.08;25.63;;;;;;;26.96;61.24;100646.94;5018805;28;99652;-84
2023/08/21 00:37:53;;;;;;;27.88;25.58;;;;;;;26.84;61.08;100633.66;5052080;27;97041;-84
2023/08/21 00:40:19;;;;;;;29.25;26.73;;;;;;;26.91;61.00;100638.44;5019337;28;97046;-84
2023/08/21 00:42:44;;;;;;;28.20;25.83;;;;;;;26.81;61.13;100623.19;5015263;28;98855;-84
2023/08/21 00:45:11;;;;;;;28.88;26.50;;;;;;;26.85;61.18;100631.84;4991970;28;99898;-84
2023/08/21 00:47:37;;;;;;;27.40;25.30;;;;;;;26.87;61.47;100632.53;5037333;28;96599;-84
2023/08/21 00:50:03;;;;;;;28.25;25.83;;;;;;;26.83;61.44;100628.44;5037631;28;96685;-85
2023/08/21 00:52:28;;;;;;;28.58;26.05;;;;;;;26.79;61.51;100627.91;5036693;27;98667;-84
2023/08/21 00:54:54;;;;;;;28.73;26.45;;;;;;;26.77;61.55;100623.66;5036427;28;98461;-84
2023/08/21 00:57:20;;;;;;;29.38;27.08;;;;;;;26.68;61.64;100616.50;5037062;28;96755;-84
2023/08/21 00:59:47;;;;;;;28.60;26.33;;;;;;;26.73;61.81;100619.56;5037594;27;96816;-84
2023/08/21 01:02:12;;;;;;;30.45;26.88;;;;;;;26.67;61.82;100618.31;5018556;28;100424;-84
2023/08/21 01:04:38;;;;;;;28.90;26.48;;;;;;;26.66;61.88;100615.78;5036614;28;98582;-84
2023/08/21 01:07:09;;;;;;;28.73;26.02;;;;;;;26.68;61.94;100619.19;5036920;28;96769;-84
2023/08/21 01:09:53;;;;;;;28.88;26.48;;;;;;;26.69;62.12;100624.41;5018949;28;96915;-84
2023/08/21 01:12:27;;;;;;;27.95;25.75;;;;;;;26.69;62.02;100621.72;5025153;27;99011;-84
2023/08/21 01:15:01;;;;;;;28.45;26.08;;;;;;;26.68;62.30;100620.03;4983578;27;100327;-84
2023/08/21 01:17:28;;;;;;;29.48;26.80;;;;;;;26.64;62.29;100613.22;5018911;28;96676;-84
2023/08/21 01:19:54;;;;;;;29.88;26.92;;;;;;;26.66;62.30;100611.25;5004853;28;96860;-85
2023/08/21 01:22:25;;;;;;;28.08;25.95;;;;;;;26.73;62.17;100617.69;5010964;28;98942;-84
2023/08/21 01:24:51;;;;;;;27.52;25.42;;;;;;;26.63;62.34;100611.53;5030136;28;98275;-85
2023/08/21 01:27:17;;;;;;;29.52;27.05;;;;;;;26.74;62.21;100616.72;5018590;28;96631;-84
2023/08/21 01:29:43;;;;;;;28.30;26.02;;;;;;;26.64;62.29;100610.53;5037196;28;96809;-84
2023/08/21 01:32:31;;;;;;;28.50;26.00;;;;;;;26.71;62.25;100621.56;5015322;28;98720;-84
2023/08/21 01:34:58;;;;;;;27.48;25.38;;;;;;;26.74;62.48;100632.88;5028478;28;97835;-83
2023/08/21 01:37:26;;;;;;;29.08;26.67;;;;;;;26.75;62.53;100636.41;5018643;28;96800;-84
2023/08/21 01:39:53;;;;;;;28.40;25.90;;;;;;;26.75;62.49;100629.19;5002382;28;97292;-84
2023/08/21 01:42:19;;;;;;;28.35;26.02;;;;;;;26.72;62.23;100626.78;5033619;27;98662;-84
2023/08/21 01:44:47;;;;;;;28.15;26.02;;;;;;;26.66;62.25;100613.94;5018000;28;100316;-84
2023/08/21 01:47:12;;;;;;;28.08;25.67;;;;;;;26.77;62.35;100623.66;5036336;28;96711;-84
2023/08/21 01:49:38;;;;;;;28.48;25.92;;;;;;;26.66;62.28;100615.78;5036690;28;96997;-84
2023/08/21 01:52:05;;;;;;;28.90;26.70;;;;;;;26.69;62.35;100621.72;5017851;28;100694;-84
2023/08/21 01:54:31;;;;;;;28.73;26.27;;;;;;;26.70;62.38;100623.38;5035652;28;98330;-85
2023/08/21 01:56:57;;;;;;;29.15;26.90;;;;;;;26.67;62.24;100623.69;5007041;28;97024;-84
2023/08/21 01:59:24;;;;;;;28.17;26.02;;;;;;;26.69;62.42;100628.94;5015316;28;96992;-84
2023/08/21 02:01:49;;;;;;;28.67;26.33;;;;;;;26.68;62.72;100641.56;5036026;27;98688;-84
2023/08/21 02:04:15;;;;;;;28.95;26.25;;;;;;;26.67;62.62;100639.84;5035292;27;97252;-84
2023/08/21 02:06:41;;;;;;;29.00;26.70;;;;;;;26.69;62.65;100645.09;5035650;28;96845;-84
2023/08/21 02:09:06;;;;;;;29.33;26.88;;;;;;;26.68;62.66;100648.78;5036485;28;98336;-84
2023/08/21 02:11:34;;;;;;;28.42;26.33;;;;;;;26.73;62.86;100659.94;5035549;28;98009;-84
2023/08/21 02:13:59;;;;;;;29.45;26.90;;;;;;;26.69;63.13;100655.88;5017760;28;100672;-85
2023/08/21 02:16:25;;;;;;;28.48;26.38;;;;;;;26.63;63.68;100655.44;5018114;28;96750;-86
2023/08/21 02:18:51;;;;;;;28.73;26.27;;;;;;;26.62;63.95;100661.00;5018450;28;96623;-86
2023/08/21 02:21:19;;;;;;;29.60;27.30;;;;;;;26.63;64.03;100678.84;5035926;27;97970;-84
2023/08/21 02:23:44;;;;;;;28.88;26.60;;;;;;;26.49;64.64;100663.97;5017910;28;100932;-85
2023/08/21 02:26:10;;;;;;;29.60;27.35;;;;;;;26.60;64.88;100684.53;5022306;28;96821;-86
2023/08/21 02:28:35;;;;;;;29.75;27.30;;;;;;;26.58;65.30;100686.50;5035970;27;97003;-86
2023/08/21 02:31:01;;;;;;;30.48;28.15;;;;;;;26.50;65.76;100681.00;5017589;28;99828;-85
2023/08/21 02:33:26;;;;;;;30.75;28.35;;;;;;;26.52;66.31;100711.31;5049332;27;98441;-86
2023/08/21 02:35:52;;;;;;;31.83;29.30;;;;;;;26.43;66.75;100724.63;5012642;28;96875;-86
2023/08/21 02:38:17;;;;;;;32.60;29.52;;;;;;;26.42;66.92;100744.47;5027292;27;96899;-85
2023/08/21 02:40:43;;;;;;;31.33;28.73;;;;;;;26.40;67.07;100776.03;5021443;28;99087;-85
2023/08/21 02:43:08;;;;;;;30.98;28.58;;;;;;;26.33;67.44;100809.06;5035506;27;98459;-85
2023/08/21 02:45:34;;;;;;;31.70;29.15;;;;;;;26.26;67.20;100799.84;5036180;27;96591;-86
2023/08/21 02:47:59;;;;;;;31.88;29.42;;;;;;;26.28;67.62;100806.78;5036079;28;96730;-85
2023/08/21 02:50:25;;;;;;;32.85;29.73;;;;;;;26.16;67.98;100786.41;5035632;28;98715;-85
2023/08/21 02:52:50;;;;;;;29.60;26.92;;;;;;;25.88;68.25;100772.78;5017220;28;100199;-85
2023/08/21 02:55:16;;;;;;;28.83;26.45;;;;;;;25.98;68.29;100764.75;5017317;28;96868;-85
2023/08/21 02:57:41;;;;;;;28.17;25.88;;;;;;;26.02;68.38;100763.47;5035750;27;96756;-85
2023/08/21 03:00:08;;;;;;;28.70;26.13;;;;;;;25.94;68.66;100739.97;5017066;28;99018;-85
2023/08/21 03:02:34;;;;;;;25.77;23.88;;;;;;;25.77;67.74;100715.59;5034879;28;98534;-85
2023/08/21 03:05:00;;;;;;;23.65;21.73;;;;;;;25.69;66.29;100706.41;5036151;28;97409;-85
2023/08/21 03:07:25;;;;;;;23.95;22.05;;;;;;;25.72;66.43;100706.13;5035362;28;96781;-85
2023/08/21 03:09:51;;;;;;;24.38;22.58;;;;;;;25.74;66.46;100705.94;5034886;27;98914;-85
2023/08/21 03:12:16;;;;;;;23.23;21.55;;;;;;;25.69;65.95;100692.97;5016825;28;98265;-84
2023/08/21 03:14:42;;;;;;;23.23;21.38;;;;;;;25.56;65.47;100673.56;5017314;28;96984;-83
2023/08/21 03:17:08;;;;;;;23.90;21.88;;;;;;;25.59;65.55;100689.41;5037027;27;96944;-84
2023/08/21 03:19:34;;;;;;;23.15;21.48;;;;;;;25.56;65.53;100686.16;5038211;28;98841;-85
2023/08/21 03:22:00;;;;;;;22.58;20.98;;;;;;;25.63;65.32;100687.31;5038387;28;98928;-85
2023/08/21 03:24:26;;;;;;;23.27;21.45;;;;;;;25.69;65.61;100687.56;5020620;28;96810;-85
2023/08/21 03:26:51;;;;;;;23.98;22.02;;;;;;;25.69;65.23;100684.03;5038358;28;96679;-84
2023/08/21 03:29:17;;;;;;;23.42;21.48;;;;;;;25.65;65.78;100683.47;5019935;28;100854;-84
2023/08/21 03:31:42;;;;;;;23.92;21.90;;;;;;;25.70;65.82;100685.75;5037952;28;98787;-84
2023/08/21 03:34:08;;;;;;;23.50;21.80;;;;;;;25.70;65.97;100680.34;5006482;28;97074;-85
2023/08/21 03:36:36;;;;;;;24.10;22.30;;;;;;;25.75;65.96;100691.53;5020710;28;96980;-85
2023/08/21 03:39:06;;;;;;;23.08;21.27;;;;;;;25.73;66.08;100694.34;5020230;28;100869;-85
2023/08/21 03:41:35;;;;;;;23.48;21.60;;;;;;;25.76;66.29;100698.59;5020227;28;100401;-87
2023/08/21 03:44:01;;;;;;;25.17;23.23;;;;;;;25.71;66.16;100696.38;5039113;27;96809;-85
2023/08/21 03:46:26;;;;;;;25.50;23.30;;;;;;;25.65;66.57;100691.53;5019532;28;96966;-84
2023/08/21 03:48:54;;;;;;;26.20;23.65;;;;;;;25.44;67.89;100680.91;5004765;28;98940;-85
2023/08/21 03:51:19;;;;;;;26.10;24.10;;;;;;;25.30;68.23;100674.09;5024778;28;98337;-85
2023/08/21 03:53:45;;;;;;;26.75;24.75;;;;;;;25.27;69.36;100676.22;5038899;28;96649;-85
2023/08/21 03:56:10;;;;;;;27.55;25.40;;;;;;;25.28;69.57;100681.47;5019392;28;96875;-85
2023/08/21 03:58:36;;;;;;;29.50;27.17;;;;;;;25.27;70.01;100685.09;5019881;28;100406;-85
2023/08/21 04:01:02;;;;;;;29.35;27.10;;;;;;;25.39;69.73;100701.13;5038035;27;98564;-84
2023/08/21 04:03:27;;;;;;;30.52;27.88;;;;;;;25.44;69.72;100694.34;5011510;28;96679;-85
2023/08/21 04:05:53;;;;;;;30.35;27.95;;;;;;;25.53;69.91;100708.78;5011096;28;96882;-85
2023/08/21 04:08:19;;;;;;;30.15;27.92;;;;;;;25.58;69.80;100714.59;5017581;28;98819;-85
2023/08/21 04:10:45;;;;;;;30.98;28.33;;;;;;;25.53;69.99;100717.69;5016535;28;98746;-84
2023/08/21 04:13:10;;;;;;;31.45;28.85;;;;;;;25.55;69.95;100722.09;5017661;28;96801;-83
2023/08/21 04:15:36;;;;;;;30.63;28.17;;;;;;;25.59;69.73;100723.50;5017997;28;96799;-84
2023/08/21 04:18:04;;;;;;;30.80;28.30;;;;;;;25.56;70.06;100727.31;5015912;28;100868;-84
2023/08/21 04:20:29;;;;;;;33.22;30.52;;;;;;;25.55;69.87;100727.47;5017351;28;98515;-85
2023/08/21 04:22:55;;;;;;;32.25;29.65;;;;;;;25.59;69.84;100723.50;5017822;28;96762;-85
2023/08/21 04:25:20;;;;;;;31.25;28.75;;;;;;;25.46;69.79;100715.72;5017745;28;96833;-85
2023/08/21 04:27:46;;;;;;;31.85;29.00;;;;;;;25.47;70.21;100744.28;5016980;28;99041;-85
2023/08/21 04:30:12;;;;;;;31.25;28.65;;;;;;;25.51;70.03;100743.00;5016100;28;100379;-86
2023/08/21 04:32:37;;;;;;;32.58;29.83;;;;;;;25.46;70.04;100754.19;5016481;28;96707;-85
2023/08/21 04:35:05;;;;;;;32.10;29.67;;;;;;;25.50;69.81;100750.22;5017531;28;96795;-85
2023/08/21 04:37:31;;;;;;;32.03;29.38;;;;;;;25.26;70.26;100725.56;5017075;28;98011;-85
2023/08/21 04:39:57;;;;;;;33.15;30.55;;;;;;;25.27;70.48;100730.78;5016210;28;100672;-84
2023/08/21 04:42:22;;;;;;;39.15;35.95;;;;;;;25.07;70.74;100720.94;5017818;28;96757;-84
2023/08/21 04:44:48;;;;;;;39.83;36.58;;;;;;;24.79;71.34;100715.31;5017905;28;96802;-85
2023/08/21 04:47:23;;;;;;;36.75;33.85;;;;;;;24.42;72.17;100706.06;5015507;28;100117;-84
2023/08/21 04:49:50;;;;;;;34.08;31.35;;;;;;;24.31;72.81;100702.44;5015778;28;97847;-84
2023/08/21 04:52:16;;;;;;;33.72;31.02;;;;;;;24.52;72.47;100723.97;5016253;28;96719;-84
2023/08/21 04:54:43;;;;;;;32.35;29.85;;;;;;;24.68;71.74;100733.34;5015938;28;96883;-85
2023/08/21 04:57:09;;;;;;;33.38;30.60;;;;;;;24.78;71.51;100732.44;5015317;28;100645;-84
2023/08/21 04:59:36;;;;;;;34.53;31.77;;;;;;;24.83;71.71;100750.81;5016706;28;98685;-84
2023/08/21 05:02:02;;;;;;;32.63;30.13;;;;;;;24.95;71.04;100749.72;5015715;28;96895;-85
2023/08/21 05:04:28;;;;;;;31.67;29.27;;;;;;;25.04;70.57;100758.81;5015809;28;96882;-84
2023/08/21 05:06:54;;;;;;;31.40;29.10;;;;;;;25.10;70.77;100752.88;5005876;28;99940;-85
2023/08/21 05:09:19;;;;;;;34.47;31.60;;;;;;;25.07;70.45;100735.22;5011500;28;98559;-85
2023/08/21 05:11:45;;;;;;;32.38;29.88;;;;;;;25.17;70.35;100764.00;5015602;28;98657;-85
2023/08/21 05:14:12;;;;;;;32.28;29.75;;;;;;;25.22;70.13;100746.47;5015998;28;96791;-85
2023/08/21 05:16:38;;;;;;;31.60;29.05;;;;;;;25.28;70.13;100745.09;5016280;28;99175;-84
2023/08/21 05:19:03;;;;;;;32.95;30.00;;;;;;;25.31;70.15;100760.94;5015371;28;100117;-85
2023/08/21 05:21:29;;;;;;;33.95;31.23;;;;;;;25.35;70.23;100764.19;5015366;28;96882;-85
2023/08/21 05:23:55;;;;;;;33.35;30.52;;;;;;;25.35;69.49;100773.09;5015672;28;97428;-84
2023/08/21 05:26:21;;;;;;;32.75;30.20;;;;;;;25.30;69.32;100753.84;5014361;28;100265;-84
2023/08/21 05:28:47;;;;;;;33.70;30.77;;;;;;;25.30;69.07;100757.38;5014806;28;100556;-84
2023/08/21 05:31:12;;;;;;;32.10;29.08;;;;;;;25.47;68.64;100779.19;4982141;28;96876;-84
2023/08/21 05:34:04;;;;;;;30.85;28.23;;;;;;;25.38;68.21;100786.25;5000180;28;96940;-84
2023/08/21 05:36:29;;;;;;;31.83;29.13;;;;;;;25.52;67.85;100768.91;5015914;28;97993;-85
2023/08/21 05:38:57;;;;;;;31.35;28.80;;;;;;;25.77;67.19;100772.88;5013541;28;100262;-84
2023/08/21 05:41:24;;;;;;;30.05;27.85;;;;;;;26.28;65.00;100739.53;5015067;28;96700;-84
2023/08/21 05:43:51;;;;;;;30.52;28.20;;;;;;;28.64;58.52;100767.56;4998790;28;96883;-84
2023/08/21 05:46:17;;;;;;;30.15;27.85;;;;;;;29.70;55.85;100772.66;5015865;28;98903;-84
2023/08/21 05:48:42;;;;;;;29.67;27.38;;;;;;;31.19;51.71;100772.41;5014747;28;99714;-84
2023/08/21 05:51:08;;;;;;;30.10;27.88;;;;;;;29.60;53.22;100777.31;5015984;28;96764;-84
2023/08/21 05:53:33;;;;;;;32.88;29.77;;;;;;;31.06;50.90;100783.78;5014915;28;97038;-84
2023/08/21 05:55:59;;;;;;;29.42;27.33;;;;;;;32.49;47.69;100771.78;5010896;28;100561;-84
2023/08/21 05:58:29;;;;;;;29.90;27.45;;;;;;;33.33;45.70;100770.50;5004574;28;98701;-84
2023/08/21 06:00:55;;;;;;;29.95;27.65;;;;;;;33.41;44.54;100780.44;5014747;28;96846;-84
2023/08/21 06:03:22;;;;;;;27.20;25.25;;;;;;;34.59;43.07;100787.34;5007185;28;96899;-84
2023/08/21 06:06:03;;;;;;;27.70;25.80;;;;;;;35.52;40.30;100782.41;5009645;28;100774;-84
2023/08/21 06:08:28;;;;;;;26.30;24.30;;;;;;;35.20;40.01;100773.06;5014555;28;100152;-84
2023/08/21 06:10:54;;;;;;;25.00;23.17;;;;;;;35.21;37.63;100782.06;5014826;28;96706;-84
2023/08/21 06:13:20;;;;;;;25.83;23.83;;;;;;;35.93;36.51;100775.19;5015813;28;96894;-84
2023/08/21 06:15:48;;;;;;;24.70;23.00;;;;;;;35.59;36.75;100780.56;5013791;28;100235;-85
2023/08/21 06:18:15;;;;;;;25.30;23.60;;;;;;;35.71;36.41;100775.34;5014996;28;98829;-84
2023/08/21 06:20:43;;;;;;;24.63;22.88;;;;;;;35.07;38.06;100783.88;5005581;28;96960;-84
2023/08/21 06:23:10;;;;;;;23.73;21.70;;;;;;;35.32;35.11;100778.78;5012193;28;96801;-84
2023/08/21 06:25:36;;;;;;;22.98;21.48;;;;;;;36.67;34.91;100788.69;5015339;28;97621;-84
2023/08/21 06:28:02;;;;;;;22.10;20.70;;;;;;;36.42;32.90;100798.56;5013685;28;100319;-84
2023/08/21 06:30:27;;;;;;;23.20;21.70;;;;;;;33.71;37.64;100807.59;5015713;28;96663;-84
2023/08/21 06:32:53;;;;;;;21.73;20.25;;;;;;;31.60;40.38;100821.06;5005628;28;96886;-84
2023/08/21 06:35:19;;;;;;;23.13;21.42;;;;;;;30.43;43.06;100831.47;5008631;28;100615;-85
2023/08/21 06:37:44;;;;;;;23.17;21.48;;;;;;;29.85;45.76;100823.44;5013758;28;99937;-85
2023/08/21 06:40:11;;;;;;;24.17;22.25;;;;;;;29.43;45.29;100822.41;5013961;28;96861;-84
2023/08/21 06:42:37;;;;;;;23.88;22.17;;;;;;;29.21;47.14;100833.81;5015461;28;96757;-84
2023/08/21 06:45:05;;;;;;;22.65;20.75;;;;;;;28.97;46.92;100816.38;5013830;28;100124;-85
2023/08/21 06:47:30;;;;;;;23.00;21.58;;;;;;;28.79;45.80;100812.91;5014683;28;97301;-84
2023/08/21 06:49:56;;;;;;;23.25;21.48;;;;;;;29.26;44.59;100824.16;5005316;28;97486;-84
2023/08/21 06:52:22;;;;;;;24.00;22.25;;;;;;;29.65;44.94;100826.41;5010482;28;96897;-85
2023/08/21 06:54:47;;;;;;;22.67;21.15;;;;;;;30.12;43.87;100815.00;5014639;28;98820;-85
2023/08/21 06:57:13;;;;;;;22.38;20.77;;;;;;;29.28;45.54;100824.03;5013752;28;98627;-84
2023/08/21 06:59:39;;;;;;;23.23;21.63;;;;;;;29.66;44.83;100813.72;5015265;28;96767;-84
2023/08/21 07:02:05;;;;;;;24.08;22.30;;;;;;;34.32;37.79;100834.44;5015344;28;96765;-84
2023/08/21 07:04:32;;;;;;;23.55;21.90;;;;;;;36.67;33.63;100807.00;5014117;28;98907;-85
2023/08/21 07:06:58;;;;;;;23.27;21.52;;;;;;;37.96;31.45;100819.88;5013001;28;97286;-84
2023/08/21 07:09:24;;;;;;;23.10;21.08;;;;;;;37.71;31.79;100827.97;5015179;28;97041;-84
2023/08/21 07:11:49;;;;;;;22.50;20.83;;;;;;;35.86;34.06;100824.31;5014953;28;97699;-84
2023/08/21 07:14:15;;;;;;;22.40;20.80;;;;;;;33.85;36.64;100820.31;5014689;28;98957;-84
2023/08/21 07:16:40;;;;;;;21.65;20.25;;;;;;;32.63;38.79;100830.72;5014267;28;98923;-84
2023/08/21 07:19:06;;;;;;;21.75;20.35;;;;;;;31.75;40.74;100845.56;5013797;28;96710;-84
2023/08/21 07:21:34;;;;;;;22.52;20.92;;;;;;;30.82;42.77;100829.94;5015351;28;96796;-84
2023/08/21 07:24:00;;;;;;;22.73;20.98;;;;;;;29.52;43.09;100842.19;5013290;28;99397;-85
2023/08/21 07:26:25;;;;;;;22.50;20.70;;;;;;;29.30;44.39;100847.19;5014250;28;99062;-84
2023/08/21 07:28:52;;;;;;;23.42;21.48;;;;;;;29.16;45.39;100861.28;5013313;28;96790;-84
2023/08/21 07:31:18;;;;;;;22.48;20.88;;;;;;;29.16;45.95;100857.75;5015092;28;96878;-84
2023/08/21 07:33:43;;;;;;;23.15;21.52;;;;;;;28.96;45.13;100860.63;5000295;28;98918;-84
2023/08/21 07:36:09;;;;;;;23.02;21.48;;;;;;;28.50;45.74;100841.03;5014173;28;98308;-84
2023/08/21 07:38:34;;;;;;;23.33;21.63;;;;;;;28.39;46.18;100834.03;5014979;28;96986;-84
2023/08/21 07:41:08;;;;;;;24.45;21.98;;;;;;;28.56;46.65;100843.09;5014693;28;96977;-84
2023/08/21 07:43:34;;;;;;;22.58;21.05;;;;;;;28.56;46.27;100840.41;5014459;28;99078;-84
2023/08/21 07:46:06;;;;;;;22.23;20.73;;;;;;;29.62;45.37;100851.06;5014406;28;98510;-84
2023/08/21 07:48:32;;;;;;;23.30;21.75;;;;;;;30.08;44.12;100853.38;5014680;28;96856;-84
2023/08/21 07:50:58;;;;;;;23.38;21.70;;;;;;;29.55;44.73;100847.28;5014424;28;96932;-84
2023/08/21 07:53:25;;;;;;;22.95;21.45;;;;;;;30.29;42.72;100840.25;5013916;28;98923;-84
2023/08/21 07:55:50;;;;;;;23.33;21.80;;;;;;;33.70;37.03;100844.03;5013748;28;98770;-84
2023/08/21 07:58:16;;;;;;;23.55;21.85;;;;;;;37.57;32.27;100849.09;5013357;28;96770;-84
2023/08/21 08:00:42;;;;;;;22.52;20.77;;;;;;;39.54;29.16;100829.56;5014554;28;96993;-84
2023/08/21 08:03:08;;;;;;;22.30;20.63;;;;;;;39.31;28.98;100838.53;5015557;28;98684;-84
2023/08/21 08:05:34;;;;;;;21.83;20.17;;;;;;;36.36;32.23;100845.84;5019306;28;98817;-84
2023/08/21 08:07:59;;;;;;;21.55;20.13;;;;;;;34.76;34.36;100842.38;5038125;28;96822;-84
2023/08/21 08:10:25;;;;;;;21.77;20.13;;;;;;;36.83;31.62;100830.31;5038350;28;96816;-84
2023/08/21 08:12:51;;;;;;;20.98;19.67;;;;;;;36.01;32.66;100838.66;5037248;28;99110;-85
2023/08/21 08:15:20;;;;;;;22.23;20.58;;;;;;;35.62;32.93;100839.38;5019382;28;98322;-84
2023/08/21 08:17:46;;;;;;;21.97;20.40;;;;;;;39.30;29.34;100842.34;5037402;28;96881;-85
2023/08/21 08:20:12;;;;;;;22.13;20.73;;;;;;;37.36;30.36;100833.78;5019698;28;96944;-84
2023/08/21 08:22:38;;;;;;;21.90;20.27;;;;;;;34.98;33.57;100812.34;5037309;28;99005;-84
2023/08/21 08:25:05;;;;;;;21.80;20.30;;;;;;;35.94;32.87;100820.56;5037092;28;98682;-84
2023/08/21 08:27:32;;;;;;;22.55;20.92;;;;;;;38.86;28.39;100822.31;5019339;28;96839;-84
2023/08/21 08:29:58;;;;;;;22.55;20.90;;;;;;;41.38;25.00;100803.03;5034837;28;96832;-85
2023/08/21 08:32:23;;;;;;;22.52;21.05;;;;;;;44.11;22.92;100835.34;5030449;27;98896;-84
2023/08/21 08:34:49;;;;;;;21.50;20.13;;;;;;;45.54;21.40;100816.06;5028377;28;98318;-85
2023/08/21 08:37:14;;;;;;;22.00;20.27;;;;;;;45.13;20.62;100804.81;5037188;27;96824;-85
2023/08/21 08:39:40;;;;;;;22.35;20.75;;;;;;;44.44;21.81;100809.34;5028767;28;96759;-85
2023/08/21 08:42:07;;;;;;;21.08;19.65;;;;;;;46.45;20.62;100806.97;5031098;27;99200;-84
2023/08/21 08:44:34;;;;;;;20.70;19.40;;;;;;;47.67;19.09;100815.19;5018807;28;98629;-85
2023/08/21 08:47:01;;;;;;;21.27;19.75;;;;;;;46.08;20.65;100815.56;5037280;28;96691;-85
2023/08/21 08:49:26;;;;;;;21.40;19.90;;;;;;;47.49;19.43;100817.53;5037153;28;96809;-85
2023/08/21 08:51:53;;;;;;;20.48;19.08;;;;;;;48.89;18.83;100811.34;5018788;28;98896;-85
2023/08/21 08:54:20;;;;;;;21.05;19.65;;;;;;;49.44;18.49;100810.09;5036546;27;98423;-85
2023/08/21 08:56:45;;;;;;;21.83;20.02;;;;;;;51.15;16.79;100814.09;5027391;28;96836;-85
2023/08/21 08:59:12;;;;;;;20.60;19.30;;;;;;;51.08;16.57;100811.72;5031117;28;96525;-86
2023/08/21 09:01:38;;;;;;;20.58;19.13;;;;;;;47.09;18.82;100812.97;5006007;28;98939;-85
2023/08/21 09:04:03;;;;;;;21.23;19.73;;;;;;;46.01;19.98;100817.81;5036599;28;98676;-85
2023/08/21 09:06:29;;;;;;;20.88;19.48;;;;;;;46.38;20.15;100808.41;5036040;28;97115;-85
2023/08/21 09:08:56;;;;;;;19.25;18.05;;;;;;;41.15;24.30;100824.06;5018833;28;97072;-85
2023/08/21 09:11:22;;;;;;;21.55;20.15;;;;;;;37.69;28.16;100830.09;5036416;28;99036;-85
2023/08/21 09:13:53;;;;;;;20.77;19.30;;;;;;;36.40;30.28;100831.56;5036487;27;98678;-84
2023/08/21 09:16:19;;;;;;;19.50;18.27;;;;;;;35.64;31.49;100828.25;5036754;27;96777;-85
2023/08/21 09:18:49;;;;;;;21.63;20.02;;;;;;;35.11;32.01;100823.34;5036574;28;96783;-85
2023/08/21 09:21:18;;;;;;;21.13;19.63;;;;;;;34.73;32.77;100814.69;5036259;28;99075;-85
2023/08/21 09:23:45;;;;;;;20.67;19.38;;;;;;;33.64;33.42;100815.69;5036533;28;98654;-84
2023/08/21 09:26:20;;;;;;;21.33;19.65;;;;;;;33.18;34.51;100823.22;5004882;28;96849;-84
2023/08/21 09:29:06;;;;;;;21.27;19.85;;;;;;;32.74;35.39;100824.00;5023338;28;96808;-85
2023/08/21 09:31:33;;;;;;;21.38;19.85;;;;;;;33.40;33.93;100816.00;5035789;28;99113;-84
2023/08/21 09:34:00;;;;;;;20.88;19.27;;;;;;;34.22;32.43;100816.53;5021623;28;98912;-85
2023/08/21 09:36:26;;;;;;;21.75;20.02;;;;;;;33.94;32.39;100812.88;5036628;27;96621;-85
2023/08/21 09:38:52;;;;;;;21.38;19.88;;;;;;;33.79;33.27;100815.66;5036293;28;96743;-84
2023/08/21 09:41:21;;;;;;;21.33;19.92;;;;;;;34.49;31.96;100803.97;5036049;28;98709;-85
2023/08/21 09:43:47;;;;;;;21.33;19.42;;;;;;;34.85;32.75;100810.34;5035808;28;99144;-84
2023/08/21 09:46:25;;;;;;;21.50;20.10;;;;;;;34.30;32.17;100806.53;5036530;28;96838;-85
2023/08/21 09:48:52;;;;;;;21.42;19.70;;;;;;;33.90;33.02;100795.25;5022201;28;96828;-85
2023/08/21 09:51:18;;;;;;;21.08;19.70;;;;;;;33.08;35.37;100789.00;5035862;28;98670;-84
2023/08/21 09:53:44;;;;;;;21.30;19.83;;;;;;;33.16;35.35;100789.94;5035745;28;98513;-84
2023/08/21 09:56:10;;;;;;;21.80;20.10;;;;;;;33.44;35.71;100785.50;5035388;28;96843;-84
2023/08/21 09:58:36;;;;;;;19.88;18.67;;;;;;;33.72;35.22;100785.66;5036104;28;96895;-85
2023/08/21 10:01:11;;;;;;;21.38;19.63;;;;;;;33.65;34.89;100775.72;5035741;28;98853;-85
2023/08/21 10:03:39;;;;;;;20.92;19.27;;;;;;;33.51;35.54;100788.28;5035632;28;98838;-86
2023/08/21 10:06:06;;;;;;;20.75;19.25;;;;;;;33.42;36.23;100787.53;5035362;28;96767;-84
2023/08/21 10:08:36;;;;;;;20.45;19.15;;;;;;;33.42;35.18;100787.53;5018242;28;96810;-84
2023/08/21 10:11:04;;;;;;;21.15;19.38;;;;;;;33.51;35.53;100781.03;5035743;28;99077;-85
2023/08/21 10:13:32;;;;;;;21.60;19.73;;;;;;;33.42;35.98;100782.09;5035745;28;98854;-86
2023/08/21 10:15:57;;;;;;;20.60;19.30;;;;;;;32.85;36.76;100782.78;5018213;28;96753;-85
2023/08/21 10:18:33;;;;;;;21.77;20.27;;;;;;;32.69;36.65;100781.91;5018368;28;97832;-85
2023/08/21 10:21:25;;;;;;;21.00;19.40;;;;;;;33.38;35.80;100786.25;5022389;28;99245;-86
2023/08/21 10:23:54;;;;;;;20.67;19.23;;;;;;;33.92;36.06;100777.69;5020381;28;98746;-85
2023/08/21 10:26:22;;;;;;;21.67;20.27;;;;;;;34.38;35.19;100780.00;5016497;28;96857;-86
2023/08/21 10:28:55;;;;;;;20.33;19.00;;;;;;;34.49;34.87;100779.47;5022746;28;96864;-85
2023/08/21 10:31:27;;;;;;;20.42;18.88;;;;;;;34.43;35.81;100785.72;5035397;28;99010;-85
2023/08/21 10:33:53;;;;;;;20.88;19.48;;;;;;;34.79;35.40;100779.31;5035258;28;98813;-86
2023/08/21 10:36:43;;;;;;;21.00;19.60;;;;;;;33.91;35.52;100780.59;5035813;28;96700;-86
2023/08/21 10:39:20;;;;;;;21.55;20.08;;;;;;;34.07;36.56;100788.53;5035898;28;96916;-85
2023/08/21 10:41:56;;;;;;;21.35;19.80;;;;;;;33.58;35.81;100787.38;5035203;28;99101;-85
2023/08/21 10:44:51;;;;;;;21.75;20.25;;;;;;;33.43;36.54;100782.97;5035058;28;98916;-85
2023/08/21 10:47:23;;;;;;;20.45;19.15;;;;;;;33.42;36.04;100779.38;5014115;28;98486;-84
2023/08/21 10:49:56;;;;;;;19.95;18.52;;;;;;;33.54;35.59;100782.47;5035631;28;96827;-85
2023/08/21 10:52:24;;;;;;;20.85;19.45;;;;;;;33.82;35.72;100779.88;5034824;27;99261;-86
2023/08/21 10:54:54;;;;;;;21.33;19.38;;;;;;;33.88;36.16;100783.72;5034819;27;98235;-86
2023/08/21 10:57:22;;;;;;;;;;;;;;;33.19;35.75;100787.66;5050620;27;96678;-85
2023/08/21 10:59:54;;;;;;;21.27;19.70;;;;;;;32.66;36.92;100785.00;5021946;27;96844;-85
2023/08/21 11:02:19;;;;;;;21.33;19.70;;;;;;;32.31;36.90;100791.09;5034881;28;99002;-85
2023/08/21 11:04:45;;;;;;;20.08;18.88;;;;;;;32.09;37.35;100771.94;5034836;28;98495;-86
2023/08/21 11:07:10;;;;;;;21.60;20.30;;;;;;;32.34;37.27;100782.56;5034758;27;96786;-86
2023/08/21 11:09:36;;;;;;;21.67;20.15;;;;;;;32.55;36.56;100784.63;5035203;27;96879;-85